Time;durP1;ratioP1;P1;durP2;ratioP2;P2;SDS_P1;SDS_P2;PMS_P1;PMS_P2;Temp;Humidity;BMP_temperature;BMP_pressure;BME280_temperature;BME280_humidity;BME280_pressure;Samples;Min_cycle;Max_cycle;Signal;HPM_P1;HPM_P2
2021/12/06 00:02:39;;;;;;;6.90;4.90;;;;;;;-0.27;91.32;95262.56;10395826;28;96954;-65
2021/12/06 00:07:43;;;;;;;7.18;4.38;;;;;;;-0.28;91.55;95266.06;10398675;28;98724;-65
2021/12/06 00:12:46;;;;;;;6.63;4.50;;;;;;;-0.31;91.51;95271.41;10397158;27;98815;-64
2021/12/06 00:17:51;;;;;;;5.97;4.03;;;;;;;-0.37;91.31;95282.91;10399931;28;97544;-65
2021/12/06 00:22:54;;;;;;;6.20;4.00;;;;;;;-0.47;91.05;95287.84;10410980;28;96957;-66
2021/12/06 00:27:57;;;;;;;6.50;4.63;;;;;;;-0.60;90.94;95282.72;10401246;28;96818;-66
2021/12/06 00:33:01;;;;;;;8.70;5.53;;;;;;;-0.69;90.63;95287.66;10404224;28;97181;-65
2021/12/06 00:38:04;;;;;;;7.28;4.80;;;;;;;-0.78;90.05;95274.50;10401644;28;96980;-64
2021/12/06 00:43:07;;;;;;;8.45;4.82;;;;;;;-0.85;89.27;95278.41;10415214;28;96918;-66
2021/12/06 00:48:11;;;;;;;7.70;4.80;;;;;;;-0.96;89.04;95280.84;10410074;28;96815;-65
2021/12/06 00:53:14;;;;;;;4.97;3.83;;;;;;;-1.03;89.50;95293.28;10414759;28;96770;-66
2021/12/06 00:58:17;;;;;;;7.10;4.35;;;;;;;-1.11;89.77;95301.44;10403768;28;96776;-66
2021/12/06 01:03:24;;;;;;;8.85;5.10;;;;;;;-1.14;89.19;95303.38;10405920;28;97701;-66
2021/12/06 01:08:27;;;;;;;10.43;6.60;;;;;;;-1.13;90.09;95310.97;10403792;28;97108;-66
2021/12/06 01:13:30;;;;;;;10.68;7.40;;;;;;;-1.11;90.84;95318.56;10399542;27;97521;-66
2021/12/06 01:18:36;;;;;;;10.82;7.03;;;;;;;-1.12;90.91;95338.28;10397389;27;98074;-66
2021/12/06 01:23:51;;;;;;;13.73;8.20;;;;;;;-1.05;91.89;95338.66;10407754;27;96859;-66
2021/12/06 01:29:25;;;;;;;7.30;5.13;;;;;;;-1.02;90.93;95343.59;10404373;28;97034;-65
2021/12/06 01:39:49;;;;;;;10.98;7.28;;;;;;;-1.14;89.85;95359.78;10394009;28;96828;-65
2021/12/06 01:44:55;;;;;;;11.30;7.82;;;;;;;-1.21;89.36;95359.34;10407883;28;96889;-66
2021/12/06 01:50:00;;;;;;;;;;;;;;;-1.25;89.27;95364.78;10406635;27;98268;-66
2021/12/06 01:55:06;;;;;;;10.97;6.63;;;;;;;-1.32;89.22;95379.72;10403905;28;97092;-66
2021/12/06 02:00:11;;;;;;;12.10;6.85;;;;;;;-1.34;89.15;95379.00;10399018;28;98885;-65
2021/12/06 02:05:16;;;;;;;10.82;6.55;;;;;;;-1.38;89.51;95382.66;10400915;27;97168;-66
2021/12/06 02:10:21;;;;;;;10.85;6.78;;;;;;;-1.43;89.73;95384.66;10402014;27;97003;-65
2021/12/06 02:15:38;;;;;;;135.25;16.88;;;;;;;-1.58;89.62;95396.72;10403620;28;96932;-66
2021/12/06 02:20:48;;;;;;;13.00;7.93;;;;;;;-1.60;90.45;95398.50;10406785;28;97032;-65
2021/12/06 02:25:52;;;;;;;13.93;8.00;;;;;;;-1.53;90.81;95400.63;10407375;27;98030;-66
2021/12/06 02:30:55;;;;;;;12.60;7.82;;;;;;;-1.53;89.82;95407.50;10398692;27;98535;-66
2021/12/06 02:35:58;;;;;;;32.15;7.93;;;;;;;-1.55;89.26;95417.81;10418515;27;97452;-66
2021/12/06 02:41:03;;;;;;;10.90;6.80;;;;;;;-1.62;89.84;95416.56;10410197;28;97946;-65
2021/12/06 02:46:07;;;;;;;12.57;7.30;;;;;;;-1.68;90.00;95417.75;10413098;27;100741;-65
2021/12/06 02:51:11;;;;;;;10.35;7.72;;;;;;;-1.69;89.85;95434.03;10398491;27;97001;-66
2021/12/06 02:56:30;;;;;;;14.27;8.15;;;;;;;-1.76;89.78;95439.59;10404768;28;98496;-66
2021/12/06 03:01:35;;;;;;;16.83;9.27;;;;;;;-1.81;89.71;95442.47;10400162;28;100031;-65
2021/12/06 03:06:40;;;;;;;16.05;9.38;;;;;;;-1.86;88.96;95445.28;10410849;27;96830;-66
2021/12/06 03:11:47;;;;;;;16.87;10.10;;;;;;;-1.91;88.65;95447.28;10399487;27;96964;-65
2021/12/06 03:16:52;;;;;;;46.08;11.18;;;;;;;-2.01;89.39;95448.75;10394282;28;98764;-65
2021/12/06 03:21:55;;;;;;;18.97;10.80;;;;;;;-1.96;89.14;95463.84;10399132;27;98653;-64
2021/12/06 03:26:59;;;;;;;19.70;10.23;;;;;;;-1.98;89.20;95474.16;10390217;28;98878;-65
2021/12/06 03:32:04;;;;;;;12.50;7.22;;;;;;;-2.10;89.71;95473.16;10405315;28;97478;-65
2021/12/06 03:37:09;;;;;;;12.02;6.78;;;;;;;-2.00;89.87;95481.13;10395629;28;97136;-65
2021/12/06 03:42:15;;;;;;;11.82;6.18;;;;;;;-1.89;91.03;95465.13;10393254;28;98425;-65
2021/12/06 03:47:22;;;;;;;10.73;6.68;;;;;;;-1.82;90.92;95473.28;10394438;28;96886;-65
2021/12/06 03:52:26;;;;;;;10.45;6.68;;;;;;;-1.71;91.56;95484.53;10393164;28;96969;-65
2021/12/06 03:57:30;;;;;;;12.27;6.82;;;;;;;-1.64;91.76;95490.06;10402465;28;97067;-65
2021/12/06 04:02:34;;;;;;;12.52;7.38;;;;;;;-1.58;91.67;95492.28;10401614;28;98582;-65
2021/12/06 04:07:37;;;;;;;13.93;7.85;;;;;;;-1.55;91.60;95498.94;10397961;28;97367;-64
2021/12/06 04:12:41;;;;;;;15.82;8.55;;;;;;;-1.57;91.17;95500.78;10396100;28;98831;-66
2021/12/06 04:17:44;;;;;;;9.05;5.30;;;;;;;-1.68;91.05;95498.88;10392730;28;98655;-65
2021/12/06 04:22:47;;;;;;;7.95;4.95;;;;;;;-1.72;91.38;95502.53;10396367;28;98426;-65
2021/12/06 04:27:55;;;;;;;9.98;5.47;;;;;;;-1.74;90.92;95502.63;10411735;28;97443;-66
2021/12/06 04:32:59;;;;;;;7.38;4.70;;;;;;;-1.71;90.48;95514.41;10413450;27;98927;-66
2021/12/06 04:38:02;;;;;;;7.30;4.50;;;;;;;-1.74;90.92;95524.81;10395702;28;96846;-65
2021/12/06 04:43:06;;;;;;;9.15;4.95;;;;;;;-1.77;91.00;95532.72;10390788;27;97610;-65
2021/12/06 04:48:10;;;;;;;8.50;5.20;;;;;;;-1.78;91.03;95538.72;10397134;28;96904;-66
2021/12/06 04:53:18;;;;;;;7.70;4.25;;;;;;;-1.76;91.12;95544.59;10391034;28;97101;-64
2021/12/06 04:58:26;;;;;;;9.07;4.82;;;;;;;-1.84;90.26;95540.75;10382260;28;97000;-65
2021/12/06 05:03:30;;;;;;;3.95;2.42;;;;;;;-1.94;91.11;95549.84;10394411;28;98136;-65
2021/12/06 05:08:36;;;;;;;3.60;1.42;;;;;;;-1.98;91.14;95568.88;10395809;28;98352;-65
2021/12/06 05:13:44;;;;;;;3.03;2.05;;;;;;;-1.96;90.83;95584.97;10411231;28;98639;-65
2021/12/06 05:18:46;;;;;;;2.95;1.80;;;;;;;-1.90;91.50;95582.06;10389760;28;97513;-65
2021/12/06 05:23:49;;;;;;;3.28;2.40;;;;;;;-1.80;92.14;95591.78;10393885;27;99695;-64
2021/12/06 05:28:59;;;;;;;3.08;2.03;;;;;;;-1.71;92.04;95598.91;10408044;27;100191;-65
2021/12/06 05:34:08;;;;;;;4.38;2.95;;;;;;;-1.62;91.41;95602.69;10396919;28;97027;-65
2021/12/06 05:39:11;;;;;;;4.40;2.95;;;;;;;-1.57;91.80;95614.31;10398595;28;96927;-66
2021/12/06 05:44:15;;;;;;;6.25;2.67;;;;;;;-1.64;91.43;95613.00;10397299;28;96813;-65
2021/12/06 05:49:18;;;;;;;4.07;2.63;;;;;;;-1.70;91.36;95619.31;10405262;28;100453;-65
2021/12/06 05:54:22;;;;;;;3.45;2.35;;;;;;;-1.69;91.39;95625.25;10384845;28;98311;-66
2021/12/06 05:59:27;;;;;;;3.63;2.30;;;;;;;-1.72;91.26;95640.81;10402558;28;97028;-65
2021/12/06 06:04:29;;;;;;;5.10;2.77;;;;;;;-1.73;91.23;95646.84;10394159;28;100005;-65
2021/12/06 06:09:33;;;;;;;4.60;2.72;;;;;;;-1.69;92.00;95645.75;10399785;28;97305;-65
2021/12/06 06:14:37;;;;;;;4.40;3.20;;;;;;;-1.56;91.56;95658.69;10408761;28;96919;-65
2021/12/06 06:19:42;;;;;;;4.18;2.63;;;;;;;-1.54;91.80;95662.78;10415128;27;99826;-66
2021/12/06 06:24:45;;;;;;;;;;;;;;;-1.53;91.35;95667.03;10409912;28;98347;-64
2021/12/06 06:29:49;;;;;;;5.53;3.55;;;;;;;-1.58;91.59;95684.38;10415703;28;98321;-66
2021/12/06 06:34:52;;;;;;;6.90;3.03;;;;;;;-1.59;91.63;95687.84;10402470;28;98725;-65
2021/12/06 06:39:55;;;;;;;7.60;3.40;;;;;;;-1.60;91.91;95691.34;10418805;27;98898;-66
2021/12/06 06:44:59;;;;;;;3.92;2.10;;;;;;;-1.61;91.72;95694.81;10404821;28;97537;-65
2021/12/06 06:50:03;;;;;;;3.40;2.00;;;;;;;-1.59;92.04;95705.78;10402470;27;97086;-65
2021/12/06 06:55:09;;;;;;;3.50;2.17;;;;;;;-1.58;91.78;95716.88;10395186;27;96907;-64
2021/12/06 07:00:17;;;;;;;4.22;2.22;;;;;;;-1.61;92.42;95720.41;10395264;28;99278;-65
2021/12/06 07:05:20;;;;;;;3.58;2.40;;;;;;;-1.59;91.84;95725.44;10401147;27;97117;-64
2021/12/06 07:10:24;;;;;;;4.32;2.35;;;;;;;-1.50;92.12;95737.72;10401523;27;96881;-64
2021/12/06 07:15:30;;;;;;;4.65;2.88;;;;;;;-1.58;91.70;95756.09;10394260;28;97427;-65
2021/12/06 07:20:34;;;;;;;5.25;3.53;;;;;;;-1.57;92.04;95762.03;10396670;28;98655;-65
2021/12/06 07:25:37;;;;;;;4.40;2.90;;;;;;;-1.57;92.44;95768.00;10404572;27;97034;-65
2021/12/06 07:30:41;;;;;;;4.80;2.92;;;;;;;-1.50;92.69;95769.31;10397309;27;96737;-65
2021/12/06 07:35:44;;;;;;;4.57;2.93;;;;;;;-1.34;92.69;95774.41;10401336;27;97117;-64
2021/12/06 07:40:50;;;;;;;6.03;3.42;;;;;;;-1.17;92.87;95782.84;10411222;27;98504;-65
2021/12/06 07:45:55;;;;;;;10.05;5.60;;;;;;;-1.05;92.88;95791.59;10395970;27;98486;-66
2021/12/06 07:50:59;;;;;;;6.60;4.07;;;;;;;-1.00;92.35;95787.03;10405885;27;97121;-66
2021/12/06 07:56:02;;;;;;;4.73;2.97;;;;;;;-0.90;92.70;95795.84;10383891;28;96912;-65
2021/12/06 08:01:07;;;;;;;16.73;9.90;;;;;;;-0.84;93.06;95798.06;10379979;28;97262;-66
2021/12/06 08:06:11;;;;;;;9.30;6.45;;;;;;;-0.84;92.72;95800.63;10383879;28;96791;-66
2021/12/06 08:11:16;;;;;;;11.95;8.32;;;;;;;-0.78;92.93;95815.66;10384404;28;99209;-66
2021/12/06 08:16:25;;;;;;;13.02;8.15;;;;;;;-0.69;93.16;95826.28;10379894;28;100446;-66
2021/12/06 08:21:29;;;;;;;9.07;6.07;;;;;;;-0.65;92.82;95832.88;10384605;27;97199;-65
2021/12/06 08:26:35;;;;;;;10.77;7.10;;;;;;;-0.59;93.03;95829.97;10412027;27;97188;-66
2021/12/06 08:31:41;;;;;;;8.95;6.28;;;;;;;-0.50;92.77;95834.56;10391139;27;97221;-66
2021/12/06 08:36:44;;;;;;;9.60;5.72;;;;;;;-0.50;92.87;95846.56;10396907;27;96875;-66
2021/12/06 08:41:47;;;;;;;7.30;5.35;;;;;;;-0.47;92.64;95856.66;10400442;27;97400;-66
2021/12/06 08:46:51;;;;;;;14.45;9.35;;;;;;;-0.48;92.65;95870.41;10392515;27;96759;-66
2021/12/06 08:51:56;;;;;;;9.23;5.43;;;;;;;-0.57;93.22;95871.75;10394206;27;97222;-66
2021/12/06 08:57:02;;;;;;;10.17;6.40;;;;;;;-0.57;92.30;95882.84;10401208;27;96994;-66
2021/12/06 09:02:06;;;;;;;9.68;6.53;;;;;;;-0.56;92.37;95888.81;10404031;27;97066;-66
2021/12/06 09:07:29;;;;;;;9.00;5.30;;;;;;;-0.56;92.07;95888.81;10397595;27;96789;-66
2021/12/06 09:12:33;;;;;;;8.07;4.97;;;;;;;-0.58;91.83;95891.47;10404893;27;96788;-65
2021/12/06 09:17:37;;;;;;;8.23;4.90;;;;;;;-0.58;91.26;95895.75;10406034;27;97012;-66
2021/12/06 09:22:41;;;;;;;5.82;4.38;;;;;;;-0.54;91.57;95907.50;10397461;27;96962;-66
2021/12/06 09:27:45;;;;;;;10.25;5.50;;;;;;;-0.47;91.27;95906.25;10414768;27;98811;-66
2021/12/06 09:32:50;;;;;;;6.45;4.50;;;;;;;-0.47;91.25;95913.94;10427490;27;98369;-65
2021/12/06 09:37:53;;;;;;;6.57;4.80;;;;;;;-0.42;91.38;95917.06;10400391;27;96951;-66
2021/12/06 09:42:58;;;;;;;7.40;4.28;;;;;;;-0.48;91.70;95917.41;10406185;27;96879;-66
2021/12/06 09:48:04;;;;;;;8.00;4.63;;;;;;;-0.35;91.63;95933.75;10410831;27;97030;-65
2021/12/06 09:53:09;;;;;;;6.28;4.47;;;;;;;-0.28;91.60;95933.41;10412946;27;96910;-66
2021/12/06 09:58:13;;;;;;;11.85;5.75;;;;;;;-0.26;91.48;95942.66;10394217;27;96900;-66
2021/12/06 10:03:23;;;;;;;9.05;4.88;;;;;;;-0.24;91.22;95945.97;10418557;27;97863;-66
2021/12/06 10:08:25;;;;;;;9.95;5.35;;;;;;;-0.21;92.18;95940.66;10404709;27;96892;-66
2021/12/06 10:13:29;;;;;;;10.43;6.05;;;;;;;-0.08;92.21;95945.91;10393850;27;97184;-66
2021/12/06 10:18:34;;;;;;;7.80;5.10;;;;;;;-0.16;91.93;95937.84;10401596;27;96808;-65
2021/12/06 10:23:38;;;;;;;8.48;5.47;;;;;;;-0.28;92.42;95938.56;10405191;27;97104;-66
2021/12/06 10:28:43;;;;;;;7.00;4.63;;;;;;;-0.42;92.72;95931.66;10395416;27;96843;-66
2021/12/06 10:33:49;;;;;;;7.68;4.50;;;;;;;-0.55;92.76;95940.03;10405589;27;97207;-65
2021/12/06 10:38:59;;;;;;;8.02;5.00;;;;;;;-0.45;93.08;95942.91;10412697;27;97183;-66
2021/12/06 10:44:09;;;;;;;8.77;5.72;;;;;;;-0.31;93.61;95949.00;10405291;27;97131;-66
2021/12/06 10:49:16;;;;;;;17.15;9.02;;;;;;;-0.17;93.66;95951.56;10404053;27;97079;-66
2021/12/06 10:54:33;;;;;;;7.20;4.28;;;;;;;0.16;93.76;95959.03;10409217;27;97228;-66
2021/12/06 10:59:39;;;;;;;7.10;4.10;;;;;;;0.29;93.33;95951.44;10407894;27;96808;-66
2021/12/06 11:04:43;;;;;;;8.93;3.78;;;;;;;0.47;93.88;95956.38;10394467;27;97166;-65
2021/12/06 11:09:47;;;;;;;4.78;3.20;;;;;;;0.37;93.68;95954.34;10402984;27;99780;-65
2021/12/06 11:14:50;;;;;;;5.63;3.28;;;;;;;0.68;94.53;95955.06;10402675;27;96816;-66
2021/12/06 11:19:55;;;;;;;4.00;1.88;;;;;;;1.10;93.93;95937.88;10404648;27;96760;-66
2021/12/06 11:24:58;;;;;;;3.92;2.50;;;;;;;1.44;93.92;95932.34;10403642;27;96816;-67
2021/12/06 11:30:04;;;;;;;5.45;3.50;;;;;;;1.83;94.05;95944.34;10404118;27;97007;-66
2021/12/06 11:35:10;;;;;;;5.93;3.10;;;;;;;1.89;94.17;95946.53;10410557;27;97001;-66
2021/12/06 11:40:17;;;;;;;4.78;3.20;;;;;;;2.06;94.22;95940.25;10398798;27;96774;-67
2021/12/06 11:45:32;;;;;;;4.55;2.97;;;;;;;1.66;94.01;95947.19;10412069;27;97209;-66
2021/12/06 11:50:41;;;;;;;4.25;2.63;;;;;;;1.79;95.09;95945.47;10415768;27;98783;-66
2021/12/06 11:55:47;;;;;;;4.78;2.85;;;;;;;2.09;95.32;95944.34;10415086;27;96943;-66
2021/12/06 12:01:10;;;;;;;3.63;2.35;;;;;;;2.30;94.36;95945.50;10391370;27;97467;-66
2021/12/06 12:06:29;;;;;;;3.25;2.25;;;;;;;2.28;93.97;95949.09;10408200;27;97889;-66
2021/12/06 12:11:32;;;;;;;3.13;1.90;;;;;;;2.57;94.22;95948.88;10412189;27;97274;-66
2021/12/06 12:16:36;;;;;;;2.55;2.00;;;;;;;2.69;93.78;95948.84;10391826;27;96891;-66
2021/12/06 12:21:40;;;;;;;5.40;2.30;;;;;;;2.82;93.73;95947.97;10399755;27;97050;-66
2021/12/06 12:26:54;;;;;;;3.20;2.22;;;;;;;2.68;93.35;95941.22;10403973;27;96961;-67
2021/12/06 12:32:00;;;;;;;4.30;2.47;;;;;;;2.92;94.11;95941.25;10406769;27;96741;-67
2021/12/06 12:37:05;;;;;;;4.10;2.38;;;;;;;3.12;93.87;95933.84;10418855;27;97773;-66
2021/12/06 12:42:11;;;;;;;14.15;6.72;;;;;;;2.80;93.03;95919.72;10421396;27;97367;-66
2021/12/06 12:47:16;;;;;;;3.83;2.30;;;;;;;2.94;93.40;95930.81;10420740;27;97142;-67
2021/12/06 12:52:36;;;;;;;2.03;1.60;;;;;;;3.05;93.66;95929.13;10420747;27;96974;-67
2021/12/06 12:57:39;;;;;;;4.72;2.35;;;;;;;3.07;93.76;95934.19;10420387;27;97357;-66
2021/12/06 13:02:41;;;;;;;4.78;2.80;;;;;;;2.91;93.35;95939.63;10423191;27;96884;-66
2021/12/06 13:07:57;;;;;;;1.83;1.38;;;;;;;2.60;93.64;95939.16;10420476;27;97364;-66
2021/12/06 13:13:04;;;;;;;4.45;2.80;;;;;;;2.42;93.25;95930.13;10419503;28;97942;-67
2021/12/06 13:18:30;;;;;;;6.30;3.58;;;;;;;2.16;94.11;95939.63;10419578;27;96898;-66
2021/12/06 13:23:35;;;;;;;5.65;4.00;;;;;;;2.27;93.86;95932.00;10407103;27;97651;-67
2021/12/06 13:29:01;;;;;;;6.65;4.22;;;;;;;2.20;94.32;95926.44;10416296;27;97911;-67
2021/12/06 13:34:17;;;;;;;5.53;3.35;;;;;;;2.03;93.78;95935.28;10415660;27;96958;-66
2021/12/06 13:39:39;;;;;;;6.57;4.22;;;;;;;1.92;93.52;95938.59;10410064;27;96936;-66
2021/12/06 13:44:46;;;;;;;6.63;3.90;;;;;;;1.91;94.21;95931.78;10412209;27;97168;-66
2021/12/06 13:49:56;;;;;;;7.72;4.20;;;;;;;1.78;94.28;95935.28;10416017;27;97014;-66
2021/12/06 13:55:01;;;;;;;5.38;3.70;;;;;;;1.70;94.32;95935.78;10414850;27;97178;-66
2021/12/06 14:00:11;;;;;;;5.70;3.60;;;;;;;1.74;94.76;95935.47;10421142;27;97010;-67
2021/12/06 14:05:15;;;;;;;7.10;4.50;;;;;;;1.94;94.58;95936.75;10418806;27;97386;-66
2021/12/06 14:10:21;;;;;;;8.23;5.13;;;;;;;2.05;94.62;95938.59;10419169;27;96863;-66
2021/12/06 14:15:35;;;;;;;6.35;4.22;;;;;;;1.99;93.97;95938.16;10418727;27;97216;-66
2021/12/06 14:20:45;;;;;;;7.78;4.70;;;;;;;1.87;94.00;95950.97;10414386;27;96736;-65
2021/12/06 14:25:51;;;;;;;12.90;8.30;;;;;;;1.94;93.85;95947.03;10414225;28;97040;-65
2021/12/06 14:30:58;;;;;;;6.35;4.20;;;;;;;2.00;93.52;95956.09;10415776;28;97102;-67
2021/12/06 14:36:02;;;;;;;6.35;3.60;;;;;;;1.78;93.54;95966.19;10416809;28;97089;-67
2021/12/06 14:41:08;;;;;;;6.68;4.30;;;;;;;1.69;93.57;95983.06;10418885;27;96993;-67
2021/12/06 14:46:12;;;;;;;8.45;3.70;;;;;;;1.73;93.32;95979.38;10418296;28;96872;-65
2021/12/06 14:51:16;;;;;;;5.95;3.80;;;;;;;1.59;93.00;95982.00;10417789;28;96816;-64
2021/12/06 14:56:39;;;;;;;5.95;4.28;;;;;;;1.37;93.66;95993.69;10417185;28;96793;-64
2021/12/06 15:01:44;;;;;;;7.77;4.33;;;;;;;1.37;93.77;95988.53;10415674;28;97019;-66
2021/12/06 15:06:49;;;;;;;6.47;4.47;;;;;;;1.15;93.53;96005.31;10415879;28;96899;-66
2021/12/06 15:11:55;;;;;;;7.38;4.63;;;;;;;1.09;93.66;96013.44;10417594;28;96720;-66
2021/12/06 15:16:59;;;;;;;7.60;4.88;;;;;;;0.93;93.88;96015.28;10416648;28;96690;-67
2021/12/06 15:22:06;;;;;;;7.28;4.25;;;;;;;0.80;93.34;96004.94;10416528;28;99720;-66
2021/12/06 15:27:11;;;;;;;6.68;4.43;;;;;;;0.90;93.97;95992.34;10416531;28;96918;-66
2021/12/06 15:32:15;;;;;;;;;;;;;;;0.88;93.60;95978.72;10417434;28;97301;-66
2021/12/06 15:37:28;;;;;;;8.15;5.00;;;;;;;0.84;93.03;95978.09;10417363;28;97612;-66
2021/12/06 15:42:32;;;;;;;7.55;4.47;;;;;;;0.83;92.49;95957.59;10416143;28;96893;-66
2021/12/06 15:47:40;;;;;;;8.07;4.68;;;;;;;0.67;92.30;95932.88;10421104;27;97965;-66
2021/12/06 15:52:45;;;;;;;7.78;5.65;;;;;;;0.59;91.88;95927.38;10415781;28;97085;-66
2021/12/06 15:57:49;;;;;;;8.27;4.05;;;;;;;0.49;91.69;95939.94;10392530;28;99014;-66
2021/12/06 16:02:55;;;;;;;7.37;4.17;;;;;;;0.28;91.49;95972.91;10414453;27;97252;-66
2021/12/06 16:08:02;;;;;;;8.02;4.85;;;;;;;0.08;91.32;95955.28;10413382;27;96789;-66
2021/12/06 16:13:14;;;;;;;8.13;4.30;;;;;;;-0.10;91.02;95942.59;10415178;27;97293;-66
2021/12/06 16:18:19;;;;;;;10.32;5.88;;;;;;;-0.24;90.90;95937.44;10411091;27;97408;-66
2021/12/06 16:23:28;;;;;;;9.77;5.53;;;;;;;-0.36;90.96;95937.22;10415459;27;99997;-66
2021/12/06 16:28:44;;;;;;;10.60;5.38;;;;;;;-0.46;91.20;95956.63;10411520;27;99732;-66
2021/12/06 16:33:48;;;;;;;;;;;;;;;-0.56;91.65;95961.47;10410180;27;96881;-67
2021/12/06 16:38:54;;;;;;;8.40;4.47;;;;;;;-0.61;92.13;95949.81;10413654;27;96869;-65
2021/12/06 16:43:59;;;;;;;7.90;4.60;;;;;;;-0.65;92.05;95932.94;10415033;27;97341;-66
2021/12/06 16:49:02;;;;;;;8.10;4.40;;;;;;;-0.71;91.78;95941.81;10402374;27;97252;-66
2021/12/06 16:54:12;;;;;;;6.82;4.10;;;;;;;-0.75;91.62;95933.47;10404620;27;100241;-66
2021/12/06 16:59:17;;;;;;;6.55;3.95;;;;;;;-0.73;91.25;95920.56;10408869;27;97351;-66
2021/12/06 17:04:21;;;;;;;7.75;4.57;;;;;;;-0.85;90.35;95919.50;10409136;27;98502;-64
2021/12/06 17:09:33;;;;;;;8.27;5.07;;;;;;;-0.87;90.41;95915.34;10408662;27;96850;-66
2021/12/06 17:14:37;;;;;;;9.77;5.22;;;;;;;-0.98;90.57;95908.25;10406367;27;96902;-66
2021/12/06 17:19:40;;;;;;;10.18;5.80;;;;;;;-0.99;90.77;95911.75;10411779;27;97436;-66
2021/12/06 17:24:48;;;;;;;12.00;6.13;;;;;;;-1.14;90.77;95926.25;10416417;27;97116;-65
2021/12/06 17:29:56;;;;;;;13.43;6.63;;;;;;;-1.17;90.90;95934.94;10409365;27;97548;-64
2021/12/06 17:34:58;;;;;;;11.02;6.63;;;;;;;-1.20;90.96;95924.84;10398771;27;98754;-67
2021/12/06 17:40:01;;;;;;;13.30;6.65;;;;;;;-1.21;90.88;95928.31;10401953;27;97317;-66
2021/12/06 17:45:07;;;;;;;12.93;7.40;;;;;;;-1.24;91.05;95913.09;10407067;28;96994;-65
2021/12/06 17:50:10;;;;;;;15.50;9.35;;;;;;;-1.33;90.70;95908.47;10414566;27;97169;-64
2021/12/06 17:55:13;;;;;;;17.67;8.98;;;;;;;-1.35;91.16;95894.91;10403975;27;97348;-63
2021/12/06 18:00:19;;;;;;;18.27;10.15;;;;;;;-1.35;91.38;95897.47;10396092;28;97334;-63
2021/12/06 18:05:22;;;;;;;17.27;9.63;;;;;;;-1.41;91.73;95901.22;10396599;27;97415;-63
2021/12/06 18:10:25;;;;;;;14.60;8.38;;;;;;;-1.41;91.83;95915.75;10402170;27;102510;-63
2021/12/06 18:15:29;;;;;;;18.02;9.25;;;;;;;-1.36;92.36;95906.91;10400316;27;97553;-63
2021/12/06 18:20:33;;;;;;;16.02;9.70;;;;;;;-1.30;92.40;95913.44;10392916;28;98084;-65
2021/12/06 18:25:37;;;;;;;17.90;9.63;;;;;;;-1.23;92.39;95904.50;10399218;27;98050;-63
2021/12/06 18:30:41;;;;;;;20.10;10.75;;;;;;;-1.17;92.38;95929.81;10414576;27;96982;-63
2021/12/06 18:35:45;;;;;;;17.48;9.70;;;;;;;-1.13;91.89;95959.47;10384661;27;98473;-63
2021/12/06 18:40:53;;;;;;;17.23;9.40;;;;;;;-1.10;92.22;95951.63;10407035;27;98653;-64
2021/12/06 18:45:58;;;;;;;16.13;9.57;;;;;;;-1.08;92.25;95956.69;10400869;27;97225;-63
2021/12/06 18:51:02;;;;;;;16.45;8.75;;;;;;;-1.05;92.47;95947.97;10406660;27;98051;-63
2021/12/06 18:56:06;;;;;;;14.75;8.45;;;;;;;-1.04;92.50;95949.66;10411054;27;98920;-63
2021/12/06 19:01:16;;;;;;;15.02;9.18;;;;;;;-1.05;92.76;95940.28;10400361;27;97148;-63
2021/12/06 19:06:19;;;;;;;15.30;8.25;;;;;;;-1.04;92.83;95939.38;10402950;27;97270;-63
2021/12/06 19:11:23;;;;;;;15.85;8.88;;;;;;;-0.99;92.99;95947.66;10401627;27;97480;-64
2021/12/06 19:16:27;;;;;;;17.48;9.65;;;;;;;-0.94;92.33;95932.84;10403665;27;97197;-63
2021/12/06 19:21:30;;;;;;;16.92;9.88;;;;;;;-0.93;92.53;95929.34;10406448;27;97363;-64
2021/12/06 19:26:33;;;;;;;15.85;9.48;;;;;;;-0.92;92.80;95905.38;10406107;28;97276;-63
2021/12/06 19:31:37;;;;;;;16.80;10.18;;;;;;;-0.98;92.66;95898.84;10398426;27;97222;-64
2021/12/06 19:36:41;;;;;;;17.80;10.13;;;;;;;-1.03;93.02;95917.94;10406207;27;98094;-64
2021/12/06 19:41:44;;;;;;;23.23;10.60;;;;;;;-1.12;92.59;95922.69;10403167;27;98948;-64
2021/12/06 19:46:48;;;;;;;17.45;9.95;;;;;;;-1.11;93.05;95914.06;10397605;28;97999;-64
2021/12/06 19:51:51;;;;;;;18.50;10.00;;;;;;;-1.05;92.89;95914.66;10401174;27;97263;-64
2021/12/06 19:56:56;;;;;;;17.95;9.02;;;;;;;-0.99;93.07;95901.50;10406915;27;97272;-64
2021/12/06 20:02:00;;;;;;;19.10;9.97;;;;;;;-1.01;93.23;95870.00;10401541;27;97192;-65
2021/12/06 20:07:05;;;;;;;19.42;10.70;;;;;;;-1.08;93.54;95875.47;10396092;27;97536;-65
2021/12/06 20:12:12;;;;;;;17.58;10.10;;;;;;;-1.05;93.51;95865.94;10396083;27;98586;-64
2021/12/06 20:17:18;;;;;;;19.50;10.80;;;;;;;-1.01;93.16;95882.81;10399040;27;101174;-64
2021/12/06 20:22:21;;;;;;;20.67;10.90;;;;;;;-1.04;93.59;95878.69;10406104;28;96973;-64
2021/12/06 20:27:24;;;;;;;18.77;10.90;;;;;;;-1.07;93.27;95876.28;10402666;28;97705;-64
2021/12/06 20:32:29;;;;;;;22.60;12.68;;;;;;;-1.02;93.51;95873.47;10405443;27;97315;-64
2021/12/06 20:37:32;;;;;;;22.00;10.98;;;;;;;-1.00;93.90;95879.31;10399417;27;96828;-65
2021/12/06 20:42:35;;;;;;;20.23;11.40;;;;;;;-0.98;93.63;95890.31;10399090;27;97137;-64
2021/12/06 20:47:43;;;;;;;28.63;13.18;;;;;;;-0.92;93.63;95862.59;10402927;27;98541;-64
2021/12/06 20:52:59;;;;;;;18.45;9.13;;;;;;;-0.89;93.68;95851.34;10403601;27;98443;-65
2021/12/06 20:58:02;;;;;;;16.98;8.85;;;;;;;-0.85;93.26;95836.63;10412174;27;97073;-65
2021/12/06 21:03:09;;;;;;;14.93;7.85;;;;;;;-0.83;93.59;95820.22;10400024;27;97285;-64
2021/12/06 21:08:13;;;;;;;14.30;7.90;;;;;;;-0.74;93.50;95822.25;10411851;27;101031;-64
2021/12/06 21:13:33;;;;;;;18.98;9.50;;;;;;;-0.74;93.33;95863.28;10406395;28;96964;-64
2021/12/06 21:18:38;;;;;;;30.63;14.95;;;;;;;-0.68;93.49;95851.00;10400799;27;97675;-65
2021/12/06 21:23:42;;;;;;;25.65;13.60;;;;;;;-0.71;93.48;95839.22;10403078;27;97655;-64
2021/12/06 21:28:45;;;;;;;24.30;12.95;;;;;;;-0.72;92.91;95840.09;10409449;27;97703;-65
2021/12/06 21:33:49;;;;;;;15.85;9.13;;;;;;;-0.69;93.46;95827.13;10411947;27;97537;-65
2021/12/06 21:38:53;;;;;;;14.90;8.68;;;;;;;-0.66;93.36;95844.09;10409087;27;97023;-64
2021/12/06 21:43:56;;;;;;;15.57;9.52;;;;;;;-0.62;93.51;95827.59;10410018;28;97249;-64
2021/12/06 21:49:00;;;;;;;12.90;8.00;;;;;;;-0.57;93.41;95823.00;10413673;27;97129;-65
2021/12/06 21:54:03;;;;;;;9.70;6.77;;;;;;;-0.53;93.16;95827.03;10416606;28;97519;-65
2021/12/06 21:59:07;;;;;;;10.13;6.65;;;;;;;-0.49;93.29;95854.19;10428038;27;97039;-65
2021/12/06 22:04:20;;;;;;;9.77;6.28;;;;;;;-0.55;93.39;95839.13;10397333;27;97204;-65
2021/12/06 22:09:23;;;;;;;11.63;6.55;;;;;;;-0.51;93.27;95850.88;10406035;28;97044;-64
2021/12/06 22:14:26;;;;;;;9.25;6.28;;;;;;;-0.39;92.89;95842.47;10405289;28;98255;-65
2021/12/06 22:19:33;;;;;;;14.25;8.68;;;;;;;-0.46;93.23;95851.41;10403540;27;97232;-64
2021/12/06 22:24:36;;;;;;;13.07;7.95;;;;;;;-0.50;93.06;95860.22;10398060;27;97207;-64
2021/12/06 22:29:39;;;;;;;13.05;8.27;;;;;;;-0.49;93.67;95859.31;10405680;27;99400;-64
2021/12/06 22:34:43;;;;;;;37.92;23.13;;;;;;;-0.41;93.29;95857.09;10403261;28;96869;-66
2021/12/06 22:39:50;;;;;;;13.32;8.35;;;;;;;-0.35;93.03;95855.94;10404180;28;97326;-65
2021/12/06 22:44:53;;;;;;;13.75;8.38;;;;;;;-0.35;93.25;95856.75;10400513;28;98139;-64
2021/12/06 22:49:57;;;;;;;13.80;8.23;;;;;;;-0.35;93.12;95858.50;10408250;27;97404;-65
2021/12/06 22:55:01;;;;;;;14.15;8.07;;;;;;;-0.44;92.88;95856.47;10405203;27;97478;-65
2021/12/06 23:00:14;;;;;;;13.82;8.45;;;;;;;-0.41;93.19;95879.38;10408245;27;97479;-65
2021/12/06 23:05:18;;;;;;;15.35;9.18;;;;;;;-0.49;93.16;95856.75;10408966;27;97408;-65
2021/12/06 23:10:22;;;;;;;13.63;8.38;;;;;;;-0.42;93.11;95850.34;10410554;27;96957;-65
2021/12/06 23:15:30;;;;;;;13.20;9.10;;;;;;;-0.46;93.44;95859.13;10409650;27;96831;-65
2021/12/06 23:20:35;;;;;;;14.45;8.93;;;;;;;-0.50;93.64;95857.66;10413263;27;97425;-65
2021/12/06 23:25:38;;;;;;;14.23;8.88;;;;;;;-0.50;94.01;95896.16;10407008;28;98867;-65
2021/12/06 23:30:41;;;;;;;15.18;9.65;;;;;;;-0.55;92.97;95890.44;10399871;27;97771;-65
2021/12/06 23:35:48;;;;;;;13.15;8.50;;;;;;;-0.54;93.10;95892.94;10396466;28;98428;-65
2021/12/06 23:41:02;;;;;;;16.80;10.32;;;;;;;-0.55;94.00;95900.72;10403923;27;98342;-65
2021/12/06 23:46:28;;;;;;;15.82;9.85;;;;;;;-0.58;93.26;95906.00;10399228;27;97292;-64